Time;durP1;ratioP1;P1;durP2;ratioP2;P2;SDS_P1;SDS_P2;PMS_P1;PMS_P2;Temp;Humidity;BMP_temperature;BMP_pressure;BME280_temperature;BME280_humidity;BME280_pressure;Samples;Min_cycle;Max_cycle;Signal;HPM_P1;HPM_P2
2022/03/06 00:00:08;;;;;;;1.72;1.50;;;;;;;10.82;46.83;100277.99;1820700;78;20993;-70
2022/03/06 00:02:36;;;;;;;1.85;1.60;;;;;;;10.82;46.84;100276.16;1820238;77;21113;-69
2022/03/06 00:05:04;;;;;;;1.70;1.60;;;;;;;10.81;46.84;100277.64;1834235;77;21021;-69
2022/03/06 00:07:31;;;;;;;1.60;1.50;;;;;;;10.81;46.83;100276.31;1824359;78;22043;-70
2022/03/06 00:09:57;;;;;;;1.42;1.30;;;;;;;10.81;46.85;100276.31;1828758;78;21515;-69
2022/03/06 00:12:24;;;;;;;1.62;1.27;;;;;;;10.81;46.84;100279.80;1828682;78;21524;-69
2022/03/06 00:14:50;;;;;;;1.90;1.42;;;;;;;10.81;46.85;100282.45;1834931;77;21145;-69
2022/03/06 00:17:16;;;;;;;1.87;1.50;;;;;;;10.80;46.84;100276.81;1836202;77;21025;-69
2022/03/06 00:19:44;;;;;;;1.45;1.27;;;;;;;10.80;46.85;100279.47;1828963;78;21017;-69
2022/03/06 00:22:11;;;;;;;1.45;1.35;;;;;;;10.79;46.86;100275.13;1829068;78;20986;-69
2022/03/06 00:24:37;;;;;;;1.40;1.30;;;;;;;10.79;46.86;100272.47;1828994;78;21005;-69
2022/03/06 00:27:04;;;;;;;1.52;1.30;;;;;;;10.79;46.86;100276.45;1829038;78;21292;-68
2022/03/06 00:29:30;;;;;;;1.40;1.30;;;;;;;10.78;46.86;100269.49;1829034;78;20994;-69
2022/03/06 00:31:57;;;;;;;1.40;1.30;;;;;;;10.78;46.85;100268.67;1830629;77;21072;-68
2022/03/06 00:34:24;;;;;;;1.47;1.30;;;;;;;10.78;46.86;100273.98;1829344;78;21087;-69
2022/03/06 00:36:50;;;;;;;2.15;1.77;;;;;;;10.78;46.85;100273.98;1828989;78;20992;-68
2022/03/06 00:39:17;;;;;;;1.42;1.32;;;;;;;10.77;46.87;100274.45;1829129;78;21834;-68
2022/03/06 00:41:43;;;;;;;2.02;1.67;;;;;;;10.77;46.86;100274.95;1828983;78;21563;-68
2022/03/06 00:44:09;;;;;;;1.42;1.30;;;;;;;10.77;46.86;100280.27;1829279;78;21540;-68
2022/03/06 00:46:36;;;;;;;1.77;1.45;;;;;;;10.76;46.88;100279.95;1828943;78;21604;-68
2022/03/06 00:49:03;;;;;;;1.50;1.30;;;;;;;10.76;46.87;100284.77;1838585;77;21001;-68
2022/03/06 00:51:30;;;;;;;1.30;1.20;;;;;;;10.76;46.87;100275.46;1862938;77;21254;-68
2022/03/06 00:53:56;;;;;;;1.77;1.50;;;;;;;10.76;46.86;100279.95;1862612;77;20950;-69
2022/03/06 00:56:23;;;;;;;1.70;1.47;;;;;;;10.75;46.87;100275.11;1862895;77;20975;-68
2022/03/06 00:58:49;;;;;;;1.67;1.30;;;;;;;10.75;46.87;100276.44;1862605;77;21564;-68
2022/03/06 01:01:15;;;;;;;1.87;1.47;;;;;;;10.75;46.87;100284.41;1863028;77;21054;-69
2022/03/06 01:03:43;;;;;;;1.40;1.30;;;;;;;10.75;46.87;100284.91;1862701;76;21237;-69
2022/03/06 01:06:09;;;;;;;1.52;1.42;;;;;;;10.74;46.88;100281.91;1863008;77;21520;-69
2022/03/06 01:08:36;;;;;;;1.87;1.40;;;;;;;10.74;46.87;100283.23;1844890;77;21002;-70
2022/03/06 01:11:03;;;;;;;1.30;1.20;;;;;;;10.74;46.87;100284.09;1822607;77;21022;-68
2022/03/06 01:13:31;;;;;;;1.37;1.27;;;;;;;10.73;46.87;100282.41;1847820;77;21533;-69
2022/03/06 01:15:58;;;;;;;1.82;1.47;;;;;;;10.73;46.88;100281.08;1847757;77;21136;-69
2022/03/06 01:18:24;;;;;;;3.37;1.60;;;;;;;10.74;46.89;100284.56;1847805;77;21010;-69
2022/03/06 01:20:52;;;;;;;1.57;1.47;;;;;;;10.73;46.85;100282.91;1847746;77;21005;-68
2022/03/06 01:23:19;;;;;;;1.37;1.25;;;;;;;10.71;46.86;100281.73;1847071;77;21506;-69
2022/03/06 01:25:45;;;;;;;1.55;1.30;;;;;;;10.71;46.89;100284.39;1847734;77;21513;-69
2022/03/06 01:28:13;;;;;;;1.65;1.30;;;;;;;10.72;46.88;100280.75;1847766;77;21281;-68
2022/03/06 01:30:39;;;;;;;1.55;1.30;;;;;;;10.70;46.88;100281.41;1847607;77;20989;-68
2022/03/06 01:33:06;;;;;;;1.25;1.15;;;;;;;10.71;46.88;100280.41;1848189;77;20997;-69
2022/03/06 01:35:33;;;;;;;1.57;1.35;;;;;;;10.71;46.89;100285.72;1847677;77;20989;-69
2022/03/06 01:38:00;;;;;;;1.82;1.47;;;;;;;10.71;46.88;100288.37;1847847;77;21013;-68
2022/03/06 01:40:26;;;;;;;1.45;1.35;;;;;;;10.70;46.89;100284.06;1846789;77;21234;-69
2022/03/06 01:42:53;;;;;;;1.42;1.25;;;;;;;10.70;46.88;100284.06;1848131;77;21065;-69
2022/03/06 01:45:20;;;;;;;1.47;1.17;;;;;;;10.70;46.88;100284.06;1847779;77;20997;-69
2022/03/06 01:47:50;;;;;;;2.20;1.40;;;;;;;10.70;46.88;100284.06;1847727;77;21064;-68
2022/03/06 01:50:30;;;;;;;1.42;1.32;;;;;;;10.69;46.87;100289.02;1848079;77;20974;-69
2022/03/06 01:52:58;;;;;;;1.55;1.45;;;;;;;10.70;46.89;100292.51;1813006;79;21958;-68
2022/03/06 01:55:25;;;;;;;1.30;1.20;;;;;;;10.69;46.88;100278.90;1848132;77;21006;-68
2022/03/06 01:57:56;;;;;;;1.40;1.30;;;;;;;10.68;46.90;100287.84;1834969;77;21556;-68
2022/03/06 02:00:26;;;;;;;1.95;1.20;;;;;;;10.68;46.88;100286.52;1848106;77;21607;-69
2022/03/06 02:02:53;;;;;;;1.40;1.20;;;;;;;10.67;46.88;100291.00;1847845;77;21009;-68
2022/03/06 02:05:20;;;;;;;1.30;1.20;;;;;;;10.67;46.89;100288.34;1848062;77;21137;-68
2022/03/06 02:07:47;;;;;;;1.50;1.40;;;;;;;10.66;46.88;100289.83;1847687;77;21029;-69
2022/03/06 02:10:15;;;;;;;1.37;1.27;;;;;;;10.66;46.91;100284.51;1848071;77;21089;-68
2022/03/06 02:12:42;;;;;;;1.20;1.10;;;;;;;10.66;46.89;100291.98;1847784;77;21021;-68
2022/03/06 02:17:37;;;;;;;1.50;1.40;;;;;;;10.65;46.89;100280.20;1841529;77;21480;-69
2022/03/06 02:20:14;;;;;;;1.60;1.40;;;;;;;10.65;46.90;100284.19;1848123;77;21493;-69
2022/03/06 02:22:43;;;;;;;1.12;1.02;;;;;;;10.63;46.90;100285.16;1847817;77;21068;-69
2022/03/06 02:25:16;;;;;;;1.30;1.20;;;;;;;10.62;46.89;100288.83;1848126;77;21029;-68
2022/03/06 02:27:44;;;;;;;1.27;1.17;;;;;;;10.61;46.92;100280.50;1847936;77;21030;-69
2022/03/06 02:30:19;;;;;;;1.40;1.30;;;;;;;10.62;46.92;100291.95;1847896;77;21232;-68
2022/03/06 02:32:47;;;;;;;1.95;1.72;;;;;;;10.62;46.92;100301.25;1838078;77;20983;-69
2022/03/06 02:35:14;;;;;;;1.65;1.45;;;;;;;10.62;46.91;100298.59;1764119;81;21569;-69
2022/03/06 02:37:41;;;;;;;1.47;1.20;;;;;;;10.62;46.92;100301.25;1765197;81;21034;-68
2022/03/06 02:40:10;;;;;;;1.40;1.30;;;;;;;10.61;46.92;100303.59;1764212;81;21044;-68
2022/03/06 02:42:39;;;;;;;1.30;1.20;;;;;;;10.60;46.93;100308.08;1765629;81;21817;-69
2022/03/06 02:45:13;;;;;;;1.57;1.40;;;;;;;10.60;46.92;100309.88;1765154;81;21023;-69
2022/03/06 02:47:40;;;;;;;1.42;1.22;;;;;;;10.59;46.92;100307.72;1838065;78;21034;-69
2022/03/06 02:50:09;;;;;;;1.35;1.22;;;;;;;10.58;46.94;100307.87;1838114;78;21010;-69
2022/03/06 02:52:36;;;;;;;1.57;1.42;;;;;;;10.57;46.93;100307.55;1817373;78;21064;-68
2022/03/06 02:55:04;;;;;;;1.80;1.60;;;;;;;10.57;46.94;100306.22;1838219;78;21262;-68
2022/03/06 02:57:31;;;;;;;1.50;1.40;;;;;;;10.57;46.96;100308.37;1841907;77;21039;-70
2022/03/06 02:59:58;;;;;;;1.40;1.30;;;;;;;10.57;46.95;100312.86;1845790;77;21090;-69
2022/03/06 03:02:24;;;;;;;1.62;1.32;;;;;;;10.56;46.94;100319.97;1845477;77;20977;-68
2022/03/06 03:04:50;;;;;;;1.62;1.52;;;;;;;10.57;46.93;100310.20;1839341;77;21022;-68
2022/03/06 03:07:17;;;;;;;1.40;1.30;;;;;;;10.58;46.94;100313.19;1812805;79;21220;-69
2022/03/06 03:09:43;;;;;;;2.10;1.65;;;;;;;10.56;46.94;100312.50;1804197;79;21014;-68
2022/03/06 03:12:11;;;;;;;1.77;1.30;;;;;;;10.55;46.93;100306.36;1802651;79;21050;-69
2022/03/06 03:14:38;;;;;;;1.50;1.37;;;;;;;10.56;46.94;100311.17;1802514;79;21014;-69
2022/03/06 03:17:05;;;;;;;1.35;1.25;;;;;;;10.55;46.93;100309.02;1802760;79;20967;-69
2022/03/06 03:19:32;;;;;;;1.50;1.40;;;;;;;10.54;46.90;100306.01;1811223;78;21210;-69
2022/03/06 03:21:59;;;;;;;1.80;1.50;;;;;;;10.55;46.92;100307.69;1829600;78;20983;-68
2022/03/06 03:24:25;;;;;;;1.82;1.50;;;;;;;10.55;46.90;100306.87;1804324;79;21041;-68
2022/03/06 03:26:52;;;;;;;1.87;1.22;;;;;;;10.54;46.90;100302.53;1804169;79;21041;-68
2022/03/06 03:29:19;;;;;;;1.75;1.27;;;;;;;10.54;46.90;100305.19;1804300;79;20970;-69
2022/03/06 03:31:45;;;;;;;1.40;1.20;;;;;;;10.53;46.91;100303.03;1804242;79;21268;-68
2022/03/06 03:34:12;;;;;;;1.37;1.27;;;;;;;10.53;46.90;100307.02;1804260;79;21049;-68
2022/03/06 03:36:39;;;;;;;1.57;1.40;;;;;;;10.52;46.91;100304.00;1804241;79;21069;-69
2022/03/06 03:39:06;;;;;;;1.32;1.22;;;;;;;10.52;46.92;100309.82;1805355;78;21029;-68
2022/03/06 03:41:34;;;;;;;1.85;1.50;;;;;;;10.53;46.90;100316.81;1804234;79;21077;-69
2022/03/06 03:44:02;;;;;;;1.50;1.40;;;;;;;10.52;46.92;100319.12;1804239;79;21237;-68
2022/03/06 03:46:28;;;;;;;1.80;1.35;;;;;;;10.52;46.91;100319.12;1804226;79;21050;-68
2022/03/06 03:48:54;;;;;;;1.87;1.35;;;;;;;10.50;46.91;100311.80;1804610;79;21506;-69
2022/03/06 03:51:21;;;;;;;2.22;1.85;;;;;;;10.50;46.92;100315.28;1804665;79;21682;-68
2022/03/06 03:53:47;;;;;;;1.60;1.47;;;;;;;10.50;46.92;100313.12;1804306;79;20982;-68
2022/03/06 03:56:13;;;;;;;1.40;1.30;;;;;;;10.50;46.90;100311.80;1805743;78;21284;-69
2022/03/06 03:58:40;;;;;;;1.67;1.52;;;;;;;10.48;46.92;100311.12;1835603;78;21479;-69
2022/03/06 04:01:07;;;;;;;1.82;1.40;;;;;;;10.48;46.90;100313.27;1837262;78;20982;-69
2022/03/06 04:03:34;;;;;;;1.62;1.25;;;;;;;10.49;46.92;100316.75;1837180;77;20983;-68
2022/03/06 04:06:00;;;;;;;1.50;1.37;;;;;;;10.47;46.92;100318.27;1837433;78;20975;-68
2022/03/06 04:08:27;;;;;;;1.47;1.37;;;;;;;10.48;46.92;100321.24;1838046;77;21230;-69
2022/03/06 04:10:56;;;;;;;1.82;1.50;;;;;;;10.48;46.91;100316.43;1842654;77;21021;-68
2022/03/06 04:13:24;;;;;;;1.75;1.50;;;;;;;10.48;46.93;100324.40;1831679;77;21021;-69
2022/03/06 04:15:52;;;;;;;1.72;1.47;;;;;;;10.47;46.91;100320.06;1820268;78;21611;-69
2022/03/06 04:18:19;;;;;;;1.40;1.30;;;;;;;10.47;46.91;100325.37;1820706;78;21466;-69
2022/03/06 04:20:45;;;;;;;1.47;1.32;;;;;;;10.46;46.92;100325.05;1820271;78;21127;-68
2022/03/06 04:23:12;;;;;;;2.15;1.45;;;;;;;10.47;46.91;100332.02;1820424;78;21041;-69
2022/03/06 04:25:38;;;;;;;2.35;1.30;;;;;;;10.46;46.88;100328.53;1818232;78;20990;-68
2022/03/06 04:28:05;;;;;;;1.30;1.20;;;;;;;10.46;46.91;100331.69;1816007;78;21009;-69
2022/03/06 04:30:32;;;;;;;1.62;1.52;;;;;;;10.46;46.90;100340.48;1803117;78;21057;-68
2022/03/06 04:32:58;;;;;;;1.67;1.50;;;;;;;10.46;46.91;100338.33;1782008;80;22225;-68
2022/03/06 04:35:25;;;;;;;2.47;1.70;;;;;;;10.45;46.89;100340.16;1781894;80;21494;-69
2022/03/06 04:37:52;;;;;;;1.85;1.60;;;;;;;10.45;46.91;100344.62;1781852;80;21041;-69
2022/03/06 04:40:18;;;;;;;1.55;1.45;;;;;;;10.45;46.88;100345.94;1782216;80;20991;-68
2022/03/06 04:42:45;;;;;;;1.95;1.62;;;;;;;10.43;46.88;100343.46;1781996;80;21509;-68
2022/03/06 04:45:12;;;;;;;1.72;1.32;;;;;;;10.43;46.89;100345.63;1781816;80;21134;-67
2022/03/06 04:47:38;;;;;;;1.92;1.60;;;;;;;10.44;46.88;100350.43;1783040;78;21010;-69
2022/03/06 04:50:06;;;;;;;1.92;1.72;;;;;;;10.43;46.89;100345.63;1781908;80;21041;-68
2022/03/06 04:52:33;;;;;;;1.35;1.25;;;;;;;10.44;46.88;100349.09;1781751;80;21577;-69
2022/03/06 04:54:59;;;;;;;1.32;1.20;;;;;;;10.43;46.86;100347.45;1782218;80;21549;-70
2022/03/06 04:57:26;;;;;;;1.45;1.32;;;;;;;10.42;46.88;100347.92;1814612;78;21461;-68
2022/03/06 04:59:52;;;;;;;1.32;1.20;;;;;;;10.42;46.88;100348.42;1820319;78;21141;-68
2022/03/06 05:02:19;;;;;;;2.02;1.52;;;;;;;10.42;46.88;100350.58;1820154;78;21560;-68
2022/03/06 05:04:46;;;;;;;1.85;1.75;;;;;;;10.43;46.88;100354.09;1818999;78;21060;-68
2022/03/06 05:07:12;;;;;;;1.90;1.42;;;;;;;10.42;46.87;100351.91;1820458;78;21036;-68
2022/03/06 05:09:38;;;;;;;1.50;1.37;;;;;;;10.43;46.87;100350.10;1834021;77;21174;-68
2022/03/06 05:12:07;;;;;;;1.82;1.40;;;;;;;10.42;46.87;100351.91;1847699;77;21057;-68
2022/03/06 05:14:36;;;;;;;1.60;1.47;;;;;;;10.42;46.87;100345.27;1847683;77;21048;-69
2022/03/06 05:17:03;;;;;;;1.85;1.40;;;;;;;10.43;46.86;100351.44;1847846;77;20963;-68
2022/03/06 05:19:30;;;;;;;1.92;1.60;;;;;;;10.43;46.85;100349.60;1847754;77;21505;-68
2022/03/06 05:21:56;;;;;;;1.60;1.50;;;;;;;10.43;46.85;100354.09;1826790;77;21109;-68
2022/03/06 05:24:23;;;;;;;1.42;1.17;;;;;;;10.43;46.85;100344.80;1814815;79;20962;-71
2022/03/06 05:26:49;;;;;;;1.50;1.40;;;;;;;10.43;46.83;100350.10;1814526;79;21064;-68
2022/03/06 05:29:16;;;;;;;3.00;1.75;;;;;;;10.42;46.84;100349.25;1814888;79;21018;-68
2022/03/06 05:31:43;;;;;;;1.85;1.65;;;;;;;10.42;46.81;100347.92;1827283;77;21009;-68
2022/03/06 05:34:09;;;;;;;1.90;1.22;;;;;;;10.43;46.82;100348.78;1847936;77;21242;-68
2022/03/06 05:36:36;;;;;;;1.60;1.30;;;;;;;10.43;46.83;100348.27;1847792;77;21027;-68
2022/03/06 05:39:02;;;;;;;1.52;1.40;;;;;;;10.43;46.82;100350.93;1846450;77;20998;-67
2022/03/06 05:41:29;;;;;;;1.65;1.40;;;;;;;10.43;46.82;100350.93;1847880;77;21049;-69
2022/03/06 05:43:56;;;;;;;1.82;1.52;;;;;;;10.44;46.80;100353.09;1847840;77;21435;-68
2022/03/06 05:46:22;;;;;;;1.72;1.55;;;;;;;10.43;46.83;100353.59;1847884;77;21872;-68
2022/03/06 05:48:49;;;;;;;1.90;1.30;;;;;;;10.45;46.80;100355.23;1847775;77;21060;-68
2022/03/06 05:51:15;;;;;;;1.87;1.22;;;;;;;10.45;46.81;100353.91;1848020;77;21009;-68
2022/03/06 05:53:41;;;;;;;2.27;1.50;;;;;;;10.46;46.82;100355.09;1848089;77;21017;-68
2022/03/06 05:56:08;;;;;;;1.27;1.17;;;;;;;10.46;46.80;100356.92;1844697;77;21434;-68
2022/03/06 05:58:34;;;;;;;1.98;1.50;;;;;;;10.46;46.81;100355.59;1847850;77;21914;-69
2022/03/06 06:01:01;;;;;;;1.60;1.50;;;;;;;10.46;46.83;100355.59;1848224;77;21002;-68
2022/03/06 06:03:28;;;;;;;1.60;1.40;;;;;;;10.46;46.82;100360.41;1847995;77;21537;-68
2022/03/06 06:05:55;;;;;;;1.55;1.42;;;;;;;10.47;46.80;100359.91;1847835;77;21559;-68
2022/03/06 06:08:21;;;;;;;2.35;1.40;;;;;;;10.46;46.80;100355.09;1847927;77;21025;-68
2022/03/06 06:10:49;;;;;;;1.67;1.42;;;;;;;10.46;46.80;100360.41;1842714;77;20974;-69
2022/03/06 06:13:18;;;;;;;1.70;1.37;;;;;;;10.47;46.80;100360.77;1836100;78;21010;-68
2022/03/06 06:15:44;;;;;;;1.52;1.20;;;;;;;10.47;46.80;100361.23;1837168;78;21022;-67
2022/03/06 06:18:12;;;;;;;1.50;1.40;;;;;;;10.47;46.80;100363.42;1837265;78;21014;-68
2022/03/06 06:20:40;;;;;;;1.40;1.20;;;;;;;10.48;46.78;100361.09;1837198;78;21025;-68
2022/03/06 06:23:06;;;;;;;1.35;1.25;;;;;;;10.50;46.81;100363.59;1837286;78;21818;-68
2022/03/06 06:25:33;;;;;;;1.40;1.22;;;;;;;10.49;46.79;100364.56;1837186;78;21022;-68
2022/03/06 06:28:00;;;;;;;2.80;1.60;;;;;;;10.50;46.78;100367.08;1837340;78;21088;-68
2022/03/06 06:30:27;;;;;;;1.77;1.50;;;;;;;10.50;46.79;100359.61;1836535;78;21049;-68
2022/03/06 06:32:53;;;;;;;1.55;1.45;;;;;;;10.51;46.79;100366.61;1837299;78;21069;-69
2022/03/06 06:35:20;;;;;;;1.60;1.20;;;;;;;10.52;46.79;100362.45;1837176;77;21163;-68
2022/03/06 06:37:48;;;;;;;1.62;1.32;;;;;;;10.52;46.79;100369.09;1830973;78;20991;-68
2022/03/06 06:40:14;;;;;;;1.65;1.40;;;;;;;10.53;46.79;100363.30;1837216;78;20982;-68
2022/03/06 06:42:42;;;;;;;1.80;1.25;;;;;;;10.54;46.79;100361.80;1837221;78;20963;-68
2022/03/06 06:45:09;;;;;;;2.22;1.42;;;;;;;10.55;46.78;100366.14;1837297;78;21033;-67
2022/03/06 06:47:36;;;;;;;1.20;1.10;;;;;;;10.57;46.79;100369.98;1807566;78;21079;-68
2022/03/06 06:50:04;;;;;;;1.40;1.30;;;;;;;10.58;46.79;100374.29;1804358;79;20966;-68
2022/03/06 06:52:34;;;;;;;1.30;1.20;;;;;;;10.59;46.77;100370.66;1804743;79;20998;-68
2022/03/06 06:55:02;;;;;;;1.62;1.52;;;;;;;10.60;46.77;100375.83;1813268;78;21061;-68
2022/03/06 06:57:29;;;;;;;1.98;1.50;;;;;;;10.60;46.76;100377.16;1837244;78;20983;-68
2022/03/06 06:59:56;;;;;;;1.75;1.30;;;;;;;10.62;46.76;100374.32;1837467;78;21097;-67
2022/03/06 07:02:23;;;;;;;2.35;1.57;;;;;;;10.63;46.75;100371.52;1836759;78;20994;-67
2022/03/06 07:04:49;;;;;;;1.67;1.45;;;;;;;10.65;46.75;100367.89;1836622;78;21082;-68
2022/03/06 07:07:16;;;;;;;1.70;1.32;;;;;;;10.65;46.75;100371.38;1837169;78;21118;-69
2022/03/06 07:09:42;;;;;;;1.30;1.20;;;;;;;10.67;46.74;100371.22;1837400;78;21067;-68
2022/03/06 07:12:11;;;;;;;1.55;1.42;;;;;;;10.68;46.73;100374.20;1846741;77;21454;-68
2022/03/06 07:14:38;;;;;;;1.67;1.50;;;;;;;10.70;46.75;100372.23;1847843;77;21524;-69
2022/03/06 07:17:05;;;;;;;1.70;1.50;;;;;;;10.71;46.71;100373.91;1847998;77;21884;-68
2022/03/06 07:19:31;;;;;;;1.37;1.22;;;;;;;10.72;46.70;100380.88;1846784;77;21517;-68
2022/03/06 07:21:59;;;;;;;1.70;1.30;;;;;;;10.73;46.70;100379.41;1814798;79;21497;-67
2022/03/06 07:24:27;;;;;;;1.77;1.50;;;;;;;10.74;46.69;100374.45;1814923;79;21210;-68
2022/03/06 07:26:53;;;;;;;1.70;1.45;;;;;;;10.75;46.71;100372.11;1814501;78;21080;-69
2022/03/06 07:29:19;;;;;;;1.50;1.27;;;;;;;10.77;46.69;100372.79;1814999;78;21580;-68
2022/03/06 07:31:46;;;;;;;1.72;1.60;;;;;;;10.79;46.68;100374.80;1814666;78;21021;-68
2022/03/06 07:34:12;;;;;;;1.32;1.17;;;;;;;10.80;46.67;100369.02;1814637;79;21013;-68
2022/03/06 07:36:39;;;;;;;1.47;1.27;;;;;;;10.81;46.64;100367.50;1818262;77;21524;-68
2022/03/06 07:39:06;;;;;;;1.37;1.27;;;;;;;10.82;46.63;100365.20;1767187;81;21566;-68
2022/03/06 07:41:33;;;;;;;1.40;1.20;;;;;;;10.84;46.62;100362.39;1770605;80;21058;-68
2022/03/06 07:44:00;;;;;;;1.12;1.02;;;;;;;10.85;46.61;100366.70;1760097;80;21014;-68
2022/03/06 07:46:26;;;;;;;1.62;1.20;;;;;;;10.86;46.61;100370.22;1745927;82;21002;-68
2022/03/06 07:48:53;;;;;;;1.95;1.50;;;;;;;10.87;46.60;100363.89;1745885;82;21248;-68
2022/03/06 07:51:19;;;;;;;1.30;1.15;;;;;;;10.90;46.61;100367.59;1745915;82;21014;-68
2022/03/06 07:53:47;;;;;;;2.47;1.40;;;;;;;10.92;46.58;100366.94;1800953;79;21082;-68
2022/03/06 07:56:14;;;;;;;1.30;1.20;;;;;;;10.92;46.58;100361.62;1787958;80;21009;-68
2022/03/06 07:58:42;;;;;;;1.50;1.22;;;;;;;10.95;46.58;100366.61;1790868;80;21517;-68
2022/03/06 08:01:09;;;;;;;1.40;1.20;;;;;;;10.96;46.57;100366.96;1790831;80;21379;-68
2022/03/06 08:03:36;;;;;;;1.50;1.22;;;;;;;10.97;46.56;100363.30;1790652;80;21022;-68
2022/03/06 08:06:02;;;;;;;1.32;1.22;;;;;;;10.98;46.54;100363.65;1790873;80;21009;-69
2022/03/06 08:08:29;;;;;;;1.20;1.10;;;;;;;11.00;46.54;100361.67;1790814;80;21001;-67
2022/03/06 08:10:55;;;;;;;1.80;1.40;;;;;;;11.02;46.54;100359.69;1781703;80;21049;-67
2022/03/06 08:13:22;;;;;;;1.70;1.30;;;;;;;11.04;46.52;100356.88;1750618;81;22029;-69
2022/03/06 08:15:49;;;;;;;1.70;1.60;;;;;;;11.05;46.51;100354.07;1750255;82;21058;-68
2022/03/06 08:18:17;;;;;;;1.50;1.40;;;;;;;11.07;46.51;100356.55;1750270;81;21478;-68
2022/03/06 08:20:44;;;;;;;1.62;1.47;;;;;;;11.08;46.51;100350.25;1750093;82;21024;-68
2022/03/06 08:23:10;;;;;;;1.72;1.30;;;;;;;11.09;46.49;100347.95;1750217;82;21014;-68
2022/03/06 08:25:37;;;;;;;1.45;1.35;;;;;;;11.10;46.50;100347.77;1750057;82;21222;-68
2022/03/06 08:28:05;;;;;;;2.17;1.55;;;;;;;11.12;46.47;100353.76;1751247;80;20986;-69
2022/03/06 08:30:31;;;;;;;1.30;1.20;;;;;;;11.12;46.47;100343.62;1750308;81;21564;-68
2022/03/06 08:32:59;;;;;;;2.05;1.50;;;;;;;11.14;46.46;100346.45;1750196;81;21523;-69
2022/03/06 08:35:33;;;;;;;1.45;1.35;;;;;;;11.14;46.43;100339.81;1750188;82;21077;-68
2022/03/06 08:38:00;;;;;;;1.47;1.37;;;;;;;11.16;46.44;100347.16;1771521;80;21045;-67
2022/03/06 08:40:27;;;;;;;1.45;1.17;;;;;;;11.17;46.42;100343.50;1781181;80;21020;-67
2022/03/06 08:42:53;;;;;;;1.52;1.40;;;;;;;11.18;46.39;100345.18;1781030;80;21021;-69
2022/03/06 08:45:20;;;;;;;2.02;1.30;;;;;;;11.19;46.41;100348.16;1780178;80;21049;-69
2022/03/06 08:47:48;;;;;;;1.70;1.50;;;;;;;11.20;46.41;100341.87;1776263;80;21045;-69
2022/03/06 08:50:15;;;;;;;1.55;1.30;;;;;;;11.20;46.37;100339.20;1774705;80;21482;-69
2022/03/06 08:52:41;;;;;;;1.62;1.30;;;;;;;11.20;46.36;100339.20;1780997;80;21623;-67
2022/03/06 08:55:09;;;;;;;1.57;1.45;;;;;;;11.21;46.35;100334.21;1781162;80;21537;-68
2022/03/06 08:57:36;;;;;;;2.33;1.47;;;;;;;11.21;46.34;100336.87;1781087;80;21489;-68
2022/03/06 09:00:05;;;;;;;1.70;1.50;;;;;;;11.22;46.33;100339.02;1781082;80;21045;-67
2022/03/06 09:02:32;;;;;;;1.62;1.20;;;;;;;11.24;46.29;100337.04;1766494;80;21149;-70
2022/03/06 09:04:58;;;;;;;1.47;1.37;;;;;;;11.24;46.31;100337.04;1750140;82;20998;-67
2022/03/06 09:07:25;;;;;;;1.40;1.30;;;;;;;11.25;46.29;100337.39;1750164;82;21015;-68
2022/03/06 09:09:53;;;;;;;1.55;1.30;;;;;;;11.26;46.28;100336.89;1750200;81;22042;-68
2022/03/06 09:12:19;;;;;;;1.50;1.37;;;;;;;11.27;46.30;100330.59;1756591;81;21513;-68
2022/03/06 09:14:46;;;;;;;1.55;1.32;;;;;;;11.28;46.29;100336.23;1759409;81;21900;-68
2022/03/06 09:17:14;;;;;;;2.08;1.50;;;;;;;11.29;46.26;100332.59;1759515;81;21049;-68
2022/03/06 09:19:41;;;;;;;1.70;1.60;;;;;;;11.31;46.25;100335.93;1770156;80;21272;-69
2022/03/06 09:22:52;;;;;;;2.10;1.65;;;;;;;11.36;46.24;100330.98;1870360;76;28499;-69
2022/03/06 09:25:19;;;;;;;2.02;1.82;;;;;;;11.34;46.24;100332.46;1826666;78;21485;-68
2022/03/06 09:27:45;;;;;;;1.70;1.60;;;;;;;11.36;46.20;100333.13;1826671;78;21344;-69
2022/03/06 09:30:12;;;;;;;1.57;1.47;;;;;;;11.38;46.18;100336.97;1826930;78;21041;-68
2022/03/06 09:32:41;;;;;;;2.50;1.95;;;;;;;11.39;46.19;100333.30;1826444;77;20949;-69
2022/03/06 09:35:09;;;;;;;2.30;1.90;;;;;;;11.41;46.22;100328.66;1826690;78;21060;-68
2022/03/06 09:37:35;;;;;;;2.62;1.62;;;;;;;11.42;46.21;100325.02;1814737;78;21000;-67
2022/03/06 09:40:03;;;;;;;2.85;1.80;;;;;;;11.45;46.18;100323.34;1826537;78;21189;-68
2022/03/06 09:42:32;;;;;;;2.47;1.82;;;;;;;11.47;46.19;100322.69;1826677;78;20886;-69
2022/03/06 09:45:03;;;;;;;1.60;1.50;;;;;;;11.50;46.17;100322.38;1826602;78;21029;-68
2022/03/06 09:47:31;;;;;;;2.35;1.90;;;;;;;11.52;46.15;100323.05;1826613;78;21053;-67
2022/03/06 09:49:58;;;;;;;2.35;2.10;;;;;;;11.56;46.15;100323.06;1826731;78;21518;-68
2022/03/06 09:52:24;;;;;;;2.35;2.00;;;;;;;11.59;46.12;100325.92;1826172;78;21923;-68
2022/03/06 09:54:52;;;;;;;2.47;2.22;;;;;;;11.61;46.09;100320.77;1818841;78;21762;-68
2022/03/06 09:57:19;;;;;;;2.70;2.05;;;;;;;11.64;46.07;100320.94;1826542;78;21052;-67
2022/03/06 09:59:47;;;;;;;3.15;2.15;;;;;;;11.66;46.07;100318.95;1826516;78;21015;-68
2022/03/06 10:02:14;;;;;;;3.35;2.50;;;;;;;11.68;46.04;100314.30;1826612;78;20993;-68
2022/03/06 10:04:41;;;;;;;2.15;1.95;;;;;;;11.71;46.03;100314.48;1826571;78;21238;-68
2022/03/06 10:07:10;;;;;;;3.22;2.52;;;;;;;11.72;46.00;100315.63;1826895;78;21010;-68
2022/03/06 10:09:47;;;;;;;2.52;2.33;;;;;;;11.73;45.96;100306.67;1823233;78;21016;-68
2022/03/06 10:12:27;;;;;;;2.55;2.35;;;;;;;11.75;45.92;100303.84;1794117;79;21056;-68
2022/03/06 10:15:02;;;;;;;3.00;2.50;;;;;;;11.75;45.89;100297.20;1794264;79;21520;-68
2022/03/06 10:17:31;;;;;;;3.30;2.70;;;;;;;11.75;45.88;100302.52;1793767;79;21068;-70
2022/03/06 10:20:09;;;;;;;3.75;2.60;;;;;;;11.74;45.87;100294.19;1794087;80;21060;-67
2022/03/06 10:22:39;;;;;;;3.12;2.80;;;;;;;11.74;45.86;100296.84;1794369;78;21001;-70
2022/03/06 10:25:08;;;;;;;3.77;2.72;;;;;;;11.73;45.87;100294.69;1794323;79;21032;-69
2022/03/06 10:27:51;;;;;;;3.10;2.47;;;;;;;11.73;45.85;100292.53;1795609;78;21013;-68
2022/03/06 10:30:39;;;;;;;3.20;2.90;;;;;;;11.72;45.86;100293.01;1794462;80;21108;-68
2022/03/06 10:33:10;;;;;;;2.85;2.55;;;;;;;11.72;45.84;100288.19;1793964;80;21005;-69
2022/03/06 10:35:39;;;;;;;4.53;2.80;;;;;;;11.71;45.87;100282.05;1796730;78;20998;-68
2022/03/06 10:38:27;;;;;;;3.70;2.92;;;;;;;11.71;45.84;100279.38;1826618;78;21053;-68
2022/03/06 10:40:55;;;;;;;3.08;2.60;;;;;;;11.71;45.84;100279.89;1826254;78;21013;-68
2022/03/06 10:43:31;;;;;;;3.52;2.87;;;;;;;11.69;45.85;100283.21;1826527;78;21877;-68
2022/03/06 10:46:13;;;;;;;4.95;2.87;;;;;;;11.68;45.82;100278.36;1793753;80;21045;-68
2022/03/06 10:48:42;;;;;;;3.45;3.02;;;;;;;11.67;45.84;100282.55;1794061;79;21030;-68
2022/03/06 10:51:13;;;;;;;4.65;3.27;;;;;;;11.65;45.82;100280.03;1793747;79;21045;-68
2022/03/06 10:53:40;;;;;;;3.83;3.02;;;;;;;11.63;45.82;100277.18;1793962;80;20983;-68
2022/03/06 10:56:13;;;;;;;4.22;3.45;;;;;;;11.61;45.80;100279.52;1793823;80;21232;-68
2022/03/06 10:58:42;;;;;;;4.10;3.30;;;;;;;11.61;45.81;100268.05;1800299;78;21004;-67
2022/03/06 11:01:08;;;;;;;3.80;3.08;;;;;;;11.59;45.81;100265.55;1816489;78;21006;-68
2022/03/06 11:03:37;;;;;;;4.62;3.42;;;;;;;11.59;45.80;100268.72;1793672;79;21072;-69
2022/03/06 11:06:07;;;;;;;5.30;3.30;;;;;;;11.58;45.78;100265.70;1793895;79;21025;-68
2022/03/06 11:08:34;;;;;;;4.00;3.22;;;;;;;11.58;45.78;100261.71;1793612;80;21206;-68
2022/03/06 11:11:01;;;;;;;4.15;3.30;;;;;;;11.57;45.78;100267.53;1793711;80;21036;-68
2022/03/06 11:13:29;;;;;;;5.87;3.95;;;;;;;11.58;45.76;100272.36;1775924;80;21017;-69
2022/03/06 11:15:56;;;;;;;5.03;3.60;;;;;;;11.57;45.74;100262.69;1793983;80;21077;-68
2022/03/06 11:18:24;;;;;;;4.20;3.50;;;;;;;11.57;45.75;100268.87;1794916;78;21504;-67
2022/03/06 11:20:53;;;;;;;4.17;3.27;;;;;;;11.58;45.74;100267.03;1793551;78;21227;-67
2022/03/06 11:23:25;;;;;;;4.22;3.50;;;;;;;11.57;45.70;100263.55;1793535;79;21021;-68
2022/03/06 11:26:16;;;;;;;;;;;;;;;11.56;45.70;100265.86;1796396;79;21038;-68
2022/03/06 11:28:54;;;;;;;5.00;3.98;;;;;;;11.57;45.70;100258.70;1793738;80;20150;-68